URRP Airport Information

Runway Information
Airport Frequencies
Airport Navaids
Airport Weather Information & NOTAM
ADDS - METARS form results

(0814 UTC 21 April 2019)
Data provider http://aviationweather.gov/metar/data/
 
METAR text: URRP 210800Z 09007MPS 050V120 CAVOK 14/M06 Q1024 WS R05 R05/CLRD70 TEMPO 13009G15MPS RMK QFE763/1017
Conditions at: URRP (PLATOV , RU) observed 0800 UTC 21 April 2019
Temperature: 14.0°C (57°F)
Dewpoint: -6.0°C (21°F) [RH = 24%]
Pressure (altimeter): 30.24 inches Hg (1024.0 mb)
Winds: from the E (90 degrees) at 16 MPH (14 knots; 7.2 m/s)
Visibility: 6 or more miles (10+ km)
Ceiling: ceiling and visibility are OK
Clouds: unknown
Weather: no significant weather observed at this time

METAR text: URRP 210730Z 10009MPS CAVOK 13/M07 Q1024 R05/CLRD70 TEMPO 13009G15MPS RMK QFE763/1018
Conditions at: URRP (PLATOV , RU) observed 0730 UTC 21 April 2019
Temperature: 13.0°C (55°F)
Dewpoint: -7.0°C (19°F) [RH = 24%]
Pressure (altimeter): 30.24 inches Hg (1024.0 mb)
Winds: from the E (100 degrees) at 20 MPH (17 knots; 8.7 m/s)
Visibility: 6 or more miles (10+ km)
Ceiling: ceiling and visibility are OK
Clouds: unknown
Weather: no significant weather observed at this time

Forecast for: URRP (PLATOV , RU)
Text: TAF URRP 210455Z 2106/2206 08006G12MPS 9999 SCT020
Forecast period: 0600 to 1600 UTC 21 April 2019
Forecast type: FROM: standard forecast or significant change
Winds: from the E (80 degrees) at 14 MPH (12 knots; 6.2 m/s)
gusting to 26 MPH (23 knots; 11.8 m/s)
Visibility: 6 or more miles 10+ km)
Ceiling: at least 12,000 feet AGL
Clouds: scattered clouds at 2000 feet AGL
Weather: no significant weather forecast for this period
Text: TEMPO 2106/2115 11009G16MPS
Forecast period: 0600 to 1500 UTC 21 April 2019
Forecast type: TEMPORARY: The following changes expected for less than half the time period
Winds: from the ESE (110 degrees) at 20 MPH (17 knots; 8.7 m/s)
gusting to 36 MPH (31 knots; 15.9 m/s)
Visibility: missing
Ceiling: unknown
Clouds: missing
Weather: no significant weather forecast for this period
Text: BECMG 2116/2118 06003G08MPS
Forecast period: 1600 UTC 21 April 2019 to 0600 UTC 22 April 2019
Forecast type: BECOMING: Conditions expected to become as follows by 1800 UTC 21 April 2019
Winds: from the ENE (60 degrees) at 7 MPH (6 knots; 3.1 m/s)
gusting to 18 MPH (16 knots; 8.2 m/s)
Visibility: 6 or more miles 10+ km)
Ceiling: at least 12,000 feet AGL
Clouds: scattered clouds at 2000 feet AGL
Weather: no significant weather forecast for this period